Eagle Varna — 9V6189 — position and weather

sailwx.info

Track history (hours):
 
Tides and Currents Weather Stations Pressure Air Temp Water Temp Dewpoint Dewpoint Depression Visibility Wind Speed Wind Dir Waves Ship Positions

Eagle Varna

Last reported at 2018-May-19 13:10 UTC. Time now 2018-Jun-18 17:09 UTC.
Position N 01°36' E 102°56'.
Warning: this ship's position is 30 days out of date.

Length 333 m; draft 11 m.

Type: Tanker. MMSI: 566848000.

Date/timePositionNaut miles runAvg speedWind from/ knotsBaromVisibWave heightAir tempDewpointWater temp
2018-May-19 13:10N 01°36' E 102°56'212.7
2018-May-19 13:00N 01°34' E 102°58'713.9
2018-May-19 12:28N 01°30' E 103°04'1014.0
2018-May-19 11:46N 01°24' E 103°12'414.1
2018-May-19 11:30N 01°22' E 103°15'714.0
2018-May-19 11:00N 01°18' E 103°20'612.8
2018-May-19 10:31N 01°14' E 103°25'713.3
2018-May-19 10:00N 01°13' E 103°32'612.5
2018-May-19 09:30N 01°11' E 103°38'612.1
2018-May-19 09:01N 01°09' E 103°43'713.2
2018-May-19 08:30N 01°11' E 103°49'611.3
2018-May-19 07:59N 01°14' E 103°55'611.9
2018-May-19 07:30N 01°16' E 104°00'4 8.2
2018-May-19 06:59N 01°17' E 104°04'1 1.3
2018-May-19 06:22N 01°18' E 104°04'0 0.1
2018-May-19 05:40N 01°18' E 104°04'0 0.0
2018-May-19 05:13N 01°18' E 104°04'0 0.2
2018-May-19 04:55N 01°18' E 104°04'0 0.0
2018-May-19 04:22N 01°18' E 104°04'0 0.2
2018-May-19 03:37N 01°18' E 104°04'0 0.0
2018-May-19 03:25N 01°18' E 104°04'0 0.1
2018-May-19 02:58N 01°18' E 104°04'0 0.1
2018-May-19 02:25N 01°18' E 104°04'0 0.0
2018-May-19 01:55N 01°18' E 104°04'0 0.1
2018-May-19 01:28N 01°18' E 104°04'0 0.0
2018-May-19 00:40N 01°18' E 104°04'0 0.0
2018-May-19 00:22N 01°18' E 104°04'0 0.0
2018-May-18 23:58N 01°18' E 104°04'0 0.0
2018-May-18 23:25N 01°18' E 104°04'0 0.0
2018-May-18 22:58N 01°18' E 104°04'0 0.0
2018-May-18 22:29N 01°18' E 104°04'0 0.0
2018-May-18 21:58N 01°18' E 104°04'0 0.0
2018-May-18 21:25N 01°18' E 104°04'0 0.0
2018-May-18 21:01N 01°18' E 104°04'0 0.0
2018-May-18 20:26N 01°18' E 104°04'0 0.0
2018-May-18 20:01N 01°18' E 104°04'0 0.0
2018-May-18 19:28N 01°18' E 104°04'0 0.1
2018-May-18 18:52N 01°18' E 104°04'0 0.0
2018-May-18 18:20N 01°18' E 104°04'0 0.0
2018-May-18 17:52N 01°18' E 104°04'0 0.4
2018-May-18 17:26N 01°18' E 104°04'0 0.1
2018-May-18 14:58N 01°18' E 104°04'0 0.0
2018-May-18 14:13N 01°18' E 104°04'0 0.0
2018-May-18 13:31N 01°18' E 104°04'0 0.0
2018-May-18 11:49N 01°18' E 104°04'0 0.0
2018-May-18 11:22N 01°18' E 104°04'0 0.0
2018-May-18 10:52N 01°18' E 104°04'0 0.1
2018-May-18 10:07N 01°18' E 104°04'0 0.0
2018-May-18 09:49N 01°18' E 104°04'0 0.0
2018-May-18 09:16N 01°18' E 104°04'0 0.0
2018-May-18 08:55N 01°18' E 104°04'0 0.1
2018-May-18 08:28N 01°18' E 104°04'1 1.2
2018-May-18 08:00N 01°18' E 104°03'3 6.4
2018-May-18 07:30N 01°17' E 104°06'4 7.1
2018-May-18 06:58N 01°17' E 104°10'3 6.4
2018-May-18 06:30N 01°17' E 104°13'3 7.1
2018-May-18 06:00N 01°18' E 104°16'4 7.5
2018-May-18 05:30N 01°19' E 104°20'4 7.6
2018-May-18 04:59N 01°22' E 104°23'4 7.4
2018-May-18 04:26N 01°24' E 104°26'5 7.6
2018-May-18 03:50N 01°28' E 104°29'  
Track history (hours):
 
Tides and Currents Weather Stations Pressure Air Temp Water Temp Dewpoint Dewpoint Depression Visibility Wind Speed Wind Dir Waves Ship Positions

Eagle Varna

Last reported at 2018-May-19 13:10 UTC. Time now 2018-Jun-18 17:09 UTC.
Position N 01°36' E 102°56'.
Warning: this ship's position is 30 days out of date.

Length 333 m; draft 11 m.

Type: Tanker. MMSI: 566848000.

Date/timePositionNaut miles runAvg speedWind from/ knotsBaromVisibWave heightAir tempDewpointWater temp
2018-May-19 13:10N 01°36' E 102°56'212.7
2018-May-19 13:00N 01°34' E 102°58'713.9
2018-May-19 12:28N 01°30' E 103°04'1014.0
2018-May-19 11:46N 01°24' E 103°12'414.1
2018-May-19 11:30N 01°22' E 103°15'714.0
2018-May-19 11:00N 01°18' E 103°20'612.8
2018-May-19 10:31N 01°14' E 103°25'713.3
2018-May-19 10:00N 01°13' E 103°32'612.5
2018-May-19 09:30N 01°11' E 103°38'612.1
2018-May-19 09:01N 01°09' E 103°43'713.2
2018-May-19 08:30N 01°11' E 103°49'611.3
2018-May-19 07:59N 01°14' E 103°55'611.9
2018-May-19 07:30N 01°16' E 104°00'4 8.2
2018-May-19 06:59N 01°17' E 104°04'1 1.3
2018-May-19 06:22N 01°18' E 104°04'0 0.1
2018-May-19 05:40N 01°18' E 104°04'0 0.0
2018-May-19 05:13N 01°18' E 104°04'0 0.2
2018-May-19 04:55N 01°18' E 104°04'0 0.0
2018-May-19 04:22N 01°18' E 104°04'0 0.2
2018-May-19 03:37N 01°18' E 104°04'0 0.0
2018-May-19 03:25N 01°18' E 104°04'0 0.1
2018-May-19 02:58N 01°18' E 104°04'0 0.1
2018-May-19 02:25N 01°18' E 104°04'0 0.0
2018-May-19 01:55N 01°18' E 104°04'0 0.1
2018-May-19 01:28N 01°18' E 104°04'0 0.0
2018-May-19 00:40N 01°18' E 104°04'0 0.0
2018-May-19 00:22N 01°18' E 104°04'0 0.0
2018-May-18 23:58N 01°18' E 104°04'0 0.0
2018-May-18 23:25N 01°18' E 104°04'0 0.0
2018-May-18 22:58N 01°18' E 104°04'0 0.0
2018-May-18 22:29N 01°18' E 104°04'0 0.0
2018-May-18 21:58N 01°18' E 104°04'0 0.0
2018-May-18 21:25N 01°18' E 104°04'0 0.0
2018-May-18 21:01N 01°18' E 104°04'0 0.0
2018-May-18 20:26N 01°18' E 104°04'0 0.0
2018-May-18 20:01N 01°18' E 104°04'0 0.0
2018-May-18 19:28N 01°18' E 104°04'0 0.1
2018-May-18 18:52N 01°18' E 104°04'0 0.0
2018-May-18 18:20N 01°18' E 104°04'0 0.0
2018-May-18 17:52N 01°18' E 104°04'0 0.4
2018-May-18 17:26N 01°18' E 104°04'0 0.1
2018-May-18 14:58N 01°18' E 104°04'0 0.0
2018-May-18 14:13N 01°18' E 104°04'0 0.0
2018-May-18 13:31N 01°18' E 104°04'0 0.0
2018-May-18 11:49N 01°18' E 104°04'0 0.0
2018-May-18 11:22N 01°18' E 104°04'0 0.0
2018-May-18 10:52N 01°18' E 104°04'0 0.1
2018-May-18 10:07N 01°18' E 104°04'0 0.0
2018-May-18 09:49N 01°18' E 104°04'0 0.0
2018-May-18 09:16N 01°18' E 104°04'0 0.0
2018-May-18 08:55N 01°18' E 104°04'0 0.1
2018-May-18 08:28N 01°18' E 104°04'1 1.2
2018-May-18 08:00N 01°18' E 104°03'3 6.4
2018-May-18 07:30N 01°17' E 104°06'4 7.1
2018-May-18 06:58N 01°17' E 104°10'3 6.4
2018-May-18 06:30N 01°17' E 104°13'3 7.1
2018-May-18 06:00N 01°18' E 104°16'4 7.5
2018-May-18 05:30N 01°19' E 104°20'4 7.6
2018-May-18 04:59N 01°22' E 104°23'4 7.4
2018-May-18 04:26N 01°24' E 104°26'5 7.6
2018-May-18 03:50N 01°28' E 104°29'  

Dump ship's entire track history